createdAt,value
2022-12-28T00:01:43.747Z,100543.94
2022-12-28T00:04:10.521Z,100528.94
2022-12-28T00:06:37.187Z,100525.34
2022-12-28T00:09:04.068Z,100529.94
2022-12-28T00:11:31.434Z,100536.69
2022-12-28T00:14:01.375Z,100535.41
2022-12-28T00:16:28.231Z,100535.06
2022-12-28T00:18:56.184Z,100520.38
2022-12-28T00:21:23.291Z,100521.06
2022-12-28T00:23:51.546Z,100534.03
2022-12-28T00:26:18.229Z,100518.53
2022-12-28T00:28:45.051Z,100529.59
2022-12-28T00:31:12.567Z,100525.78
2022-12-28T00:33:39.475Z,100536.81
2022-12-28T00:36:06.631Z,100535.50
2022-12-28T00:38:35.375Z,100529.22
2022-12-28T00:41:02.195Z,100518.50
2022-12-28T00:43:28.880Z,100515.88
2022-12-28T00:45:55.598Z,100502.53
2022-12-28T00:48:22.576Z,100514.53
2022-12-28T00:50:49.602Z,100502.81
2022-12-28T00:53:18.218Z,100513.19
2022-12-28T00:55:44.937Z,100521.75
2022-12-28T00:58:11.571Z,100516.31
2022-12-28T01:00:39.372Z,100513.34
2022-12-28T01:03:06.096Z,100523.72
2022-12-28T01:05:32.910Z,100509.34
2022-12-28T01:07:59.513Z,100518.75
2022-12-28T01:10:26.266Z,100510.84
2022-12-28T01:12:53.928Z,100510.50
2022-12-28T01:15:20.571Z,100520.88
2022-12-28T01:17:47.236Z,100510.78
2022-12-28T01:20:13.867Z,100512.59
2022-12-28T01:22:40.481Z,100517.56
2022-12-28T01:25:07.278Z,100506.03
2022-12-28T01:27:33.971Z,100514.72
2022-12-28T01:30:00.870Z,100510.09
2022-12-28T01:32:27.517Z,100514.25
2022-12-28T01:34:54.136Z,100505.31
2022-12-28T01:37:20.841Z,100505.13
2022-12-28T01:39:47.685Z,100499.84
2022-12-28T01:42:18.761Z,100495.56
2022-12-28T01:44:46.853Z,100493.75
2022-12-28T01:47:22.211Z,100485.84
2022-12-28T01:49:56.276Z,100489.47
2022-12-28T01:52:35.531Z,100488.84
2022-12-28T01:55:09.264Z,100492.94
2022-12-28T01:58:02.288Z,100490.13
2022-12-28T02:00:39.074Z,100491.78
2022-12-28T02:03:09.669Z,100497.69
2022-12-28T02:05:41.523Z,100492.59
2022-12-28T02:08:11.223Z,100501.34
2022-12-28T02:10:46.079Z,100487.97
2022-12-28T02:13:14.460Z,100495.53
2022-12-28T02:15:41.148Z,100485.81
2022-12-28T02:18:08.215Z,100490.06
2022-12-28T02:20:44.595Z,100496.00
2022-12-28T02:23:11.222Z,100482.66
2022-12-28T02:25:56.263Z,100484.28
2022-12-28T02:28:25.762Z,100480.31
2022-12-28T02:31:00.031Z,100478.28
2022-12-28T02:33:33.673Z,100473.22
2022-12-28T02:36:04.172Z,100478.66
2022-12-28T02:38:38.406Z,100471.56
2022-12-28T02:41:07.321Z,100474.22
2022-12-28T02:43:34.304Z,100478.50
2022-12-28T02:46:37.938Z,100472.19
2022-12-28T02:49:39.351Z,100466.91
2022-12-28T02:52:24.489Z,100454.91
2022-12-28T02:55:12.711Z,100464.63
2022-12-28T02:58:01.540Z,100467.09
2022-12-28T03:00:39.027Z,100465.28
2022-12-28T03:03:26.528Z,100455.38
2022-12-28T03:06:30.263Z,100448.28
2022-12-28T03:09:17.504Z,100457.66
2022-12-28T03:11:47.183Z,100457.66
2022-12-28T03:14:18.826Z,100459.66
2022-12-28T03:17:06.000Z,100450.75
2022-12-28T03:20:00.710Z,100452.56
2022-12-28T03:22:47.243Z,100454.38
2022-12-28T03:25:34.828Z,100445.78
2022-12-28T03:28:21.468Z,100447.81
2022-12-28T03:31:06.689Z,100447.63
2022-12-28T03:33:38.758Z,100439.69
2022-12-28T03:36:17.538Z,100440.53
2022-12-28T03:38:46.991Z,100435.25
2022-12-28T03:41:15.558Z,100435.25
2022-12-28T03:43:46.725Z,100437.72
2022-12-28T03:46:22.579Z,100434.25
2022-12-28T03:48:49.705Z,100428.34
2022-12-28T03:51:23.813Z,100422.03
2022-12-28T03:53:50.608Z,100431.31
2022-12-28T03:56:17.721Z,100426.69
2022-12-28T03:58:44.335Z,100416.13
2022-12-28T04:01:11.459Z,100417.94
2022-12-28T04:03:38.400Z,100408.22
2022-12-28T04:06:05.542Z,100410.03
2022-12-28T04:08:32.525Z,100405.38
2022-12-28T04:10:59.955Z,100397.81
2022-12-28T04:13:29.775Z,100398.81
2022-12-28T04:15:57.769Z,100396.38
2022-12-28T04:18:24.470Z,100395.56
2022-12-28T04:20:51.401Z,100390.59
2022-12-28T04:23:18.123Z,100383.69
2022-12-28T04:25:44.875Z,100391.44
2022-12-28T04:28:11.528Z,100384.63
2022-12-28T04:30:38.219Z,100378.53
2022-12-28T04:33:04.874Z,100380.34
2022-12-28T04:35:32.315Z,100378.69
2022-12-28T04:37:59.054Z,100367.97
2022-12-28T04:40:25.771Z,100375.06
2022-12-28T04:42:52.383Z,100367.34
2022-12-28T04:45:22.217Z,100367.34
2022-12-28T04:47:49.339Z,100366.31
2022-12-28T04:50:16.179Z,100360.41
2022-12-28T04:52:43.412Z,100364.72
2022-12-28T04:55:32.607Z,100357.25
2022-12-28T04:57:56.740Z,100353.78
2022-12-28T05:00:23.392Z,100343.88
2022-12-28T05:02:51.287Z,100338.22
2022-12-28T05:05:17.922Z,100333.13
2022-12-28T05:07:44.587Z,100333.13
2022-12-28T05:10:11.235Z,100327.66
2022-12-28T05:12:37.931Z,100327.50
2022-12-28T05:15:06.531Z,100320.41
2022-12-28T05:17:33.237Z,100321.41
2022-12-28T05:19:59.906Z,100316.13
2022-12-28T05:22:26.571Z,100311.84
2022-12-28T05:24:53.191Z,100311.72
2022-12-28T05:27:19.903Z,100303.47
2022-12-28T05:29:46.593Z,100307.72
2022-12-28T05:32:13.488Z,100305.91
2022-12-28T05:34:40.412Z,100312.19
2022-12-28T05:37:07.135Z,100294.72
2022-12-28T05:39:33.872Z,100301.66
2022-12-28T05:42:01.213Z,100303.47
2022-12-28T05:44:28.141Z,100301.81
2022-12-28T05:46:54.868Z,100299.34
2022-12-28T05:49:21.600Z,100302.00
2022-12-28T05:51:52.233Z,100287.13
2022-12-28T05:54:19.181Z,100290.44
2022-12-28T05:56:46.115Z,100290.25
2022-12-28T05:59:13.759Z,100279.72
2022-12-28T06:01:41.524Z,100271.59
2022-12-28T06:04:12.330Z,100276.69
2022-12-28T06:06:39.050Z,100276.53
2022-12-28T06:09:05.801Z,100266.41
2022-12-28T06:11:32.527Z,100261.78
2022-12-28T06:13:59.975Z,100262.63
2022-12-28T06:16:29.178Z,100265.25
2022-12-28T06:18:56.265Z,100261.25
2022-12-28T06:21:23.136Z,100265.69
2022-12-28T06:23:49.927Z,100260.41
2022-12-28T06:26:18.199Z,100247.03
2022-12-28T06:28:45.648Z,100253.31
2022-12-28T06:31:13.994Z,100237.81
2022-12-28T06:33:40.655Z,100250.22
2022-12-28T06:36:17.706Z,100239.13
2022-12-28T06:38:47.735Z,100236.28
2022-12-28T06:41:15.161Z,100234.63
2022-12-28T06:43:42.828Z,100232.81
2022-12-28T06:46:09.918Z,100224.91
2022-12-28T06:48:37.072Z,100216.16
2022-12-28T06:51:04.914Z,100217.81
2022-12-28T06:53:33.656Z,100221.25
2022-12-28T06:56:02.364Z,100214.34
2022-12-28T06:58:29.650Z,100218.44
2022-12-28T07:00:56.950Z,100218.28
2022-12-28T07:03:24.699Z,100209.34
2022-12-28T07:05:51.450Z,100221.72
2022-12-28T07:08:18.681Z,100207.25
2022-12-28T07:10:45.396Z,100199.16
2022-12-28T07:13:12.024Z,100202.97
2022-12-28T07:15:38.693Z,100195.41
2022-12-28T07:18:05.412Z,100193.78
2022-12-28T07:20:37.042Z,100204.34
2022-12-28T07:23:06.831Z,100194.59
2022-12-28T07:25:33.477Z,100191.34
2022-12-28T07:28:00.184Z,100171.22
2022-12-28T07:30:26.979Z,100178.94
2022-12-28T07:32:53.739Z,100186.06
2022-12-28T07:35:20.486Z,100181.78
2022-12-28T07:37:47.145Z,100166.28
2022-12-28T07:40:13.853Z,100186.56
2022-12-28T07:42:40.622Z,100175.94
2022-12-28T07:45:11.224Z,100176.94
2022-12-28T07:47:38.028Z,100179.31
2022-12-28T07:50:05.038Z,100170.41
2022-12-28T07:52:31.861Z,100171.22
2022-12-28T07:54:58.740Z,100168.09
2022-12-28T07:57:25.815Z,100167.47
2022-12-28T07:59:52.551Z,100174.75
2022-12-28T08:02:19.416Z,100169.38
2022-12-28T08:04:52.016Z,100161.66
2022-12-28T08:07:19.220Z,100164.47
2022-12-28T08:09:45.979Z,100165.84
2022-12-28T08:12:12.730Z,100166.66
2022-12-28T08:14:39.514Z,100153.47
2022-12-28T08:17:06.411Z,100159.75
2022-12-28T08:19:33.485Z,100159.47
2022-12-28T08:22:00.981Z,100149.72
2022-12-28T08:24:27.850Z,100147.72
2022-12-28T08:26:54.762Z,100143.91
2022-12-28T08:29:22.287Z,100144.56
2022-12-28T08:31:49.819Z,100151.00
2022-12-28T08:34:18.092Z,100142.09
2022-12-28T08:36:45.010Z,100144.72
2022-12-28T08:39:11.780Z,100145.56
2022-12-28T08:41:38.648Z,100134.78
2022-12-28T08:47:23.854Z,100124.78
2022-12-28T08:49:50.762Z,100132.72
2022-12-28T08:52:17.496Z,100124.06
2022-12-28T08:54:44.236Z,100116.53
2022-12-28T08:57:11.085Z,100127.91
2022-12-28T08:59:37.811Z,100114.88
2022-12-28T09:02:04.711Z,100113.53
2022-12-28T09:04:31.530Z,100109.72
2022-12-28T09:06:58.132Z,100109.50
2022-12-28T09:09:24.828Z,100101.16
2022-12-28T09:11:51.678Z,100100.34
2022-12-28T09:14:23.711Z,100086.75
2022-12-28T09:16:51.989Z,100085.78
2022-12-28T09:19:18.787Z,100082.97
2022-12-28T09:21:49.273Z,100083.34
2022-12-28T09:24:16.119Z,100068.13
2022-12-28T09:26:42.840Z,100073.78
2022-12-28T09:29:11.514Z,100072.97
2022-12-28T09:31:38.767Z,100067.50
2022-12-28T09:36:52.566Z,100064.94
2022-12-28T09:39:20.665Z,100059.50
2022-12-28T09:42:02.429Z,100065.22
2022-12-28T09:44:41.052Z,100065.88
2022-12-28T09:47:19.673Z,100064.66
2022-12-28T09:49:46.288Z,100049.50
2022-12-28T09:52:27.646Z,100050.31
2022-12-28T09:54:55.224Z,100052.94
2022-12-28T09:57:22.994Z,100041.56
2022-12-28T09:59:49.794Z,100035.31
2022-12-28T10:02:27.868Z,100045.22
2022-12-28T10:04:54.741Z,100034.66
2022-12-28T10:07:21.548Z,100026.75
2022-12-28T10:09:48.911Z,100017.19
2022-12-28T10:12:17.488Z,100017.00
2022-12-28T10:14:46.400Z,100004.66
2022-12-28T10:17:13.681Z,100011.28
2022-12-28T10:19:40.729Z,100017.75
2022-12-28T10:22:09.040Z,100008.66
2022-12-28T10:24:36.442Z,99993.84
2022-12-28T10:27:05.796Z,99991.09
2022-12-28T10:29:33.407Z,99979.72
2022-12-28T10:32:05.215Z,99987.66
2022-12-28T10:34:34.465Z,99974.28
2022-12-28T10:37:06.427Z,99967.81
2022-12-28T10:39:47.969Z,99963.72
2022-12-28T10:42:21.116Z,99948.91
2022-12-28T10:44:49.460Z,99946.66
2022-12-28T10:47:30.594Z,99938.72
2022-12-28T10:52:55.314Z,99926.38
2022-12-28T10:55:33.167Z,99923.72
2022-12-28T10:58:30.321Z,99920.72
2022-12-28T11:01:15.920Z,99906.28
2022-12-28T11:03:46.527Z,99895.72
2022-12-28T11:06:21.320Z,99891.06
2022-12-28T11:09:02.401Z,99880.50
2022-12-28T11:11:29.143Z,99879.72
2022-12-28T11:13:58.989Z,99864.91
2022-12-28T11:16:25.801Z,99858.81
2022-12-28T11:18:52.544Z,99850.88
2022-12-28T11:21:20.488Z,99838.69
2022-12-28T11:23:48.520Z,99827.75
2022-12-28T11:26:15.292Z,99827.75
2022-12-28T11:28:43.075Z,99829.41
2022-12-28T11:31:17.053Z,99807.31
2022-12-28T11:33:49.154Z,99798.41
2022-12-28T11:36:17.414Z,99797.16
2022-12-28T11:38:45.613Z,99788.59
2022-12-28T11:41:13.625Z,99775.59
2022-12-28T11:43:48.160Z,99770.78
2022-12-28T11:46:20.907Z,99766.13
2022-12-28T11:49:03.635Z,99749.69
2022-12-28T11:51:34.856Z,99746.66
2022-12-28T11:54:05.686Z,99752.09
2022-12-28T11:56:44.584Z,99734.69
2022-12-28T11:59:20.844Z,99717.22
2022-12-28T12:01:48.406Z,99711.13
2022-12-28T12:04:19.714Z,99710.94
2022-12-28T12:06:48.278Z,99696.72
2022-12-28T12:09:21.051Z,99683.34
2022-12-28T12:11:51.360Z,99682.31
2022-12-28T12:14:21.964Z,99677.03
2022-12-28T12:16:50.554Z,99675.59
2022-12-28T12:19:29.179Z,99649.03
2022-12-28T12:22:16.035Z,99649.84
2022-12-28T12:24:54.664Z,99637.66
2022-12-28T12:27:34.185Z,99634.41
2022-12-28T12:30:02.512Z,99611.28
2022-12-28T12:32:38.406Z,99606.22
2022-12-28T12:35:06.688Z,99589.78
2022-12-28T12:37:54.611Z,99592.03
2022-12-28T12:40:46.068Z,99564.03
2022-12-28T12:43:15.771Z,99553.69
2022-12-28T12:45:48.342Z,99546.41
2022-12-28T12:48:24.596Z,99547.81
2022-12-28T12:50:57.870Z,99540.53
2022-12-28T12:53:48.373Z,99541.53
2022-12-28T12:56:54.752Z,99520.84
2022-12-28T12:59:36.871Z,99514.41
2022-12-28T13:02:14.603Z,99479.91
2022-12-28T13:04:42.422Z,99474.63
2022-12-28T13:07:17.037Z,99455.97
2022-12-28T13:09:43.959Z,99463.69
2022-12-28T13:12:14.631Z,99450.91
2022-12-28T13:14:44.291Z,99427.19
2022-12-28T13:17:16.608Z,99422.31
2022-12-28T13:19:43.239Z,99429.84
2022-12-28T13:22:30.165Z,99410.75
2022-12-28T13:24:57.061Z,99401.44
2022-12-28T13:27:24.022Z,99393.28
2022-12-28T13:29:52.230Z,99396.78
2022-12-28T13:32:25.486Z,99386.84
2022-12-28T13:34:52.167Z,99374.47
2022-12-28T13:37:19.344Z,99376.47
2022-12-28T13:39:48.047Z,99364.31
2022-12-28T13:42:17.431Z,99364.72
2022-12-28T13:44:46.308Z,99356.59
2022-12-28T13:47:16.009Z,99346.88
2022-12-28T13:49:54.745Z,99341.41
2022-12-28T13:52:25.975Z,99327.97
2022-12-28T13:54:55.616Z,99323.31
2022-12-28T14:00:11.066Z,99316.22
2022-12-28T14:02:40.511Z,99309.72
2022-12-28T14:05:08.149Z,99312.16
2022-12-28T14:07:36.003Z,99304.03
2022-12-28T14:10:03.303Z,99300.59
2022-12-28T14:12:31.467Z,99292.09
2022-12-28T14:14:58.962Z,99290.84
2022-12-28T14:17:26.112Z,99293.69
2022-12-28T14:19:55.976Z,99277.66
2022-12-28T14:22:27.039Z,99278.66
2022-12-28T14:25:01.092Z,99270.13
2022-12-28T14:27:28.048Z,99276.66
2022-12-28T14:29:55.461Z,99272.56
2022-12-28T14:32:22.285Z,99277.66
2022-12-28T14:34:55.622Z,99260.81
2022-12-28T14:37:25.653Z,99258.38
2022-12-28T14:39:52.399Z,99254.31
2022-12-28T14:42:20.853Z,99247.00
2022-12-28T14:44:52.541Z,99223.03
2022-12-28T14:47:45.878Z,99233.41
2022-12-28T14:50:25.321Z,99231.16
2022-12-28T14:53:01.682Z,99231.75
2022-12-28T14:55:34.096Z,99216.13
2022-12-28T14:58:04.120Z,99230.31
2022-12-28T15:00:33.931Z,99224.03
2022-12-28T15:03:14.631Z,99226.88
2022-12-28T15:05:43.346Z,99215.09
2022-12-28T15:08:10.646Z,99223.22
2022-12-28T15:10:42.794Z,99224.63
2022-12-28T15:13:09.593Z,99227.50
2022-12-28T15:15:36.300Z,99221.16
2022-12-28T15:18:03.136Z,99219.97
2022-12-28T15:20:29.858Z,99222.41
2022-12-28T15:22:56.653Z,99218.13
2022-12-28T15:25:23.737Z,99226.03
2022-12-28T15:27:54.593Z,99221.78
2022-12-28T15:30:24.393Z,99222.41
2022-12-28T15:32:55.711Z,99215.06
2022-12-28T15:35:22.457Z,99207.16
2022-12-28T15:37:49.263Z,99215.69
2022-12-28T15:40:16.055Z,99214.88
2022-12-28T15:42:46.388Z,99216.50
2022-12-28T15:45:13.830Z,99227.44
2022-12-28T15:47:49.747Z,99214.03
2022-12-28T15:50:16.427Z,99197.38
2022-12-28T15:52:43.042Z,99204.91
2022-12-28T15:55:09.991Z,99191.28
2022-12-28T15:57:36.676Z,99192.53
2022-12-28T16:00:04.008Z,99190.09
2022-12-28T16:02:30.944Z,99182.81
2022-12-28T16:04:58.087Z,99173.44
2022-12-28T16:07:24.749Z,99187.47
2022-12-28T16:09:51.386Z,99172.06
2022-12-28T16:12:18.027Z,99183.81
2022-12-28T16:14:45.965Z,99183.44
2022-12-28T16:17:13.143Z,99193.19
2022-12-28T16:19:39.825Z,99197.44
2022-12-28T16:22:06.492Z,99189.31
2022-12-28T16:24:33.193Z,99195.00
2022-12-28T16:27:00.042Z,99188.91
2022-12-28T16:29:26.780Z,99194.75
2022-12-28T16:31:54.313Z,99206.75
2022-12-28T16:34:21.042Z,99197.81
2022-12-28T16:36:48.450Z,99205.72
2022-12-28T16:39:16.168Z,99209.78
2022-12-28T16:41:43.040Z,99209.56
2022-12-28T16:44:13.840Z,99212.59
2022-12-28T16:46:40.795Z,99211.59
2022-12-28T16:49:07.487Z,99199.22
2022-12-28T16:51:34.337Z,99212.22
2022-12-28T16:54:00.964Z,99199.41
2022-12-28T16:56:27.632Z,99201.22
2022-12-28T16:58:58.153Z,99206.50
2022-12-28T17:01:24.887Z,99211.78
2022-12-28T17:03:51.718Z,99207.94
2022-12-28T17:06:18.446Z,99204.50
2022-12-28T17:08:45.154Z,99214.03
2022-12-28T17:11:12.066Z,99219.91
2022-12-28T17:13:39.157Z,99211.41
2022-12-28T17:16:06.287Z,99224.97
2022-12-28T17:18:32.990Z,99222.34
2022-12-28T17:21:04.881Z,99226.63
2022-12-28T17:23:33.539Z,99226.63
2022-12-28T17:26:00.307Z,99226.19
2022-12-28T17:28:27.150Z,99215.22
2022-12-28T17:31:04.519Z,99208.94
2022-12-28T17:33:37.109Z,99210.34
2022-12-28T17:36:05.928Z,99225.16
2022-12-28T17:38:33.740Z,99210.34
2022-12-28T17:41:00.454Z,99205.06
2022-12-28T17:43:27.095Z,99209.31
2022-12-28T17:45:53.769Z,99216.84
2022-12-28T17:48:20.509Z,99214.44
2022-12-28T17:50:47.283Z,99212.22
2022-12-28T17:53:14.064Z,99211.19
2022-12-28T17:55:40.802Z,99221.75
2022-12-28T17:58:07.433Z,99219.91
2022-12-28T18:00:34.131Z,99213.59
2022-12-28T18:03:01.039Z,99213.84
2022-12-28T18:05:27.945Z,99195.56
2022-12-28T18:07:54.570Z,99189.66
2022-12-28T18:10:22.806Z,99194.75
2022-12-28T18:12:50.413Z,99183.00
2022-12-28T18:15:17.225Z,99189.28
2022-12-28T18:17:50.801Z,99185.03
2022-12-28T18:20:17.500Z,99166.34
2022-12-28T18:22:44.144Z,99180.16
2022-12-28T18:25:10.762Z,99184.44
2022-12-28T18:27:37.438Z,99181.63
2022-12-28T18:30:04.226Z,99170.44
2022-12-28T18:32:30.904Z,99168.63
2022-12-28T18:34:57.569Z,99154.03
2022-12-28T18:37:24.249Z,99164.78
2022-12-28T18:39:50.966Z,99158.69
2022-12-28T18:42:19.588Z,99149.56
2022-12-28T18:44:46.412Z,99154.03
2022-12-28T18:47:13.737Z,99166.59
2022-12-28T18:49:46.788Z,99154.78
2022-12-28T18:52:14.422Z,99151.94
2022-12-28T18:54:41.206Z,99150.50
2022-12-28T18:57:07.924Z,99153.97
2022-12-28T18:59:34.641Z,99157.22
2022-12-28T19:02:11.877Z,99159.25
2022-12-28T19:04:41.304Z,99164.53
2022-12-28T19:07:08.131Z,99159.25
2022-12-28T19:09:34.864Z,99165.72
2022-12-28T19:12:01.666Z,99178.34
2022-12-28T19:14:28.396Z,99186.66
2022-12-28T19:16:55.055Z,99183.19
2022-12-28T19:19:21.807Z,99174.47
2022-12-28T19:21:52.330Z,99187.47
2022-12-28T19:24:22.710Z,99171.25
2022-12-28T19:26:49.603Z,99179.16
2022-12-28T19:29:16.865Z,99177.72
2022-12-28T19:31:43.998Z,99179.16
2022-12-28T19:34:10.759Z,99187.91
2022-12-28T19:36:37.446Z,99183.25
2022-12-28T19:39:04.135Z,99173.25
2022-12-28T19:41:30.965Z,99170.44
2022-12-28T19:43:57.725Z,99181.81
2022-12-28T19:46:31.728Z,99187.09
2022-12-28T19:49:00.009Z,99184.25
2022-12-28T19:51:30.793Z,99180.00
2022-12-28T19:53:57.728Z,99175.16
2022-12-28T19:56:24.539Z,99175.34
2022-12-28T19:58:51.212Z,99170.50
2022-12-28T20:01:19.705Z,99175.59
2022-12-28T20:03:47.001Z,99170.94
2022-12-28T20:06:15.105Z,99164.84
2022-12-28T20:08:45.799Z,99168.09
2022-12-28T20:11:12.464Z,99172.56
2022-12-28T20:13:39.205Z,99173.78
2022-12-28T20:16:06.231Z,99173.56
2022-12-28T20:18:32.977Z,99168.09
2022-12-28T20:21:20.866Z,99157.97
2022-12-28T20:23:52.464Z,99157.59
2022-12-28T20:26:20.022Z,99172.97
2022-12-28T20:28:48.341Z,99163.44
2022-12-28T20:31:15.821Z,99156.72
2022-12-28T20:33:43.434Z,99164.03
2022-12-28T20:36:14.869Z,99158.56
2022-12-28T20:38:41.730Z,99169.72
2022-12-28T20:41:35.725Z,99157.34
2022-12-28T20:44:04.542Z,99157.94
2022-12-28T20:46:31.519Z,99144.34
2022-12-28T20:48:59.296Z,99149.00
2022-12-28T20:51:26.441Z,99153.28
2022-12-28T20:53:53.155Z,99138.25
2022-12-28T20:56:19.936Z,99130.13
2022-12-28T20:58:46.707Z,99122.00
2022-12-28T21:01:15.045Z,99118.78
2022-12-28T21:03:42.110Z,99130.94
2022-12-28T21:06:09.042Z,99115.34
2022-12-28T21:08:36.148Z,99122.00
2022-12-28T21:11:02.878Z,99118.56
2022-12-28T21:13:29.555Z,99114.91
2022-12-28T21:15:56.598Z,99109.00
2022-12-28T21:18:23.347Z,99120.38
2022-12-28T21:20:51.066Z,99117.53
2022-12-28T21:23:18.141Z,99116.16
2022-12-28T21:25:44.783Z,99112.09
2022-12-28T21:28:11.885Z,99102.34
2022-12-28T21:30:38.726Z,99109.63
2022-12-28T21:33:05.853Z,99108.25
2022-12-28T21:35:34.752Z,99128.72
2022-12-28T21:38:01.823Z,99121.63
2022-12-28T21:40:28.695Z,99124.47
2022-12-28T21:42:55.419Z,99113.91
2022-12-28T21:45:22.152Z,99116.56
2022-12-28T21:47:50.655Z,99117.38
2022-12-28T21:50:17.367Z,99108.88
2022-12-28T21:52:43.976Z,99116.16
2022-12-28T21:55:29.503Z,99099.94
2022-12-28T21:57:57.796Z,99090.41
2022-12-28T22:00:44.949Z,99099.34
2022-12-28T22:03:30.195Z,99100.16
2022-12-28T22:06:04.734Z,99092.47
2022-12-28T22:08:50.414Z,99083.94
2022-12-28T22:11:43.566Z,99089.66
2022-12-28T22:14:10.266Z,99097.94
2022-12-28T22:16:37.136Z,99087.00
2022-12-28T22:19:04.563Z,99091.09
2022-12-28T22:21:31.676Z,99091.91
2022-12-28T22:23:58.364Z,99088.06
2022-12-28T22:26:25.186Z,99072.81
2022-12-28T22:28:51.890Z,99082.59
2022-12-28T22:31:18.626Z,99088.66
2022-12-28T22:33:45.471Z,99086.22
2022-12-28T22:36:13.639Z,99089.69
2022-12-28T22:38:40.516Z,99083.19
2022-12-28T22:41:07.126Z,99076.69
2022-12-28T22:43:34.103Z,99080.34
2022-12-28T22:46:01.653Z,99073.25
2022-12-28T22:48:28.375Z,99071.44
2022-12-28T22:50:55.061Z,99053.59
2022-12-28T22:53:21.779Z,99057.44
2022-12-28T22:55:58.307Z,99062.13
2022-12-28T22:58:25.351Z,99049.34
2022-12-28T23:00:52.290Z,99061.69
2022-12-28T23:03:19.064Z,99060.69
2022-12-28T23:05:52.676Z,99053.22
2022-12-28T23:08:19.424Z,99073.91
2022-12-28T23:11:05.690Z,99063.94
2022-12-28T23:13:33.109Z,99041.44
2022-12-28T23:16:03.238Z,99052.16
2022-12-28T23:18:48.559Z,99052.59
2022-12-28T23:21:37.159Z,99060.88
2022-12-28T23:24:22.717Z,99056.22
2022-12-28T23:27:07.846Z,99059.47
2022-12-28T23:29:34.582Z,99054.22
2022-12-28T23:32:01.398Z,99049.13
2022-12-28T23:34:28.157Z,99056.03
2022-12-28T23:36:58.476Z,99054.22
2022-12-28T23:39:25.186Z,99044.69
2022-12-28T23:41:52.123Z,99042.03
2022-12-28T23:44:23.188Z,99034.53
2022-12-28T23:46:53.918Z,99047.31
2022-12-28T23:49:24.671Z,99046.50
2022-12-28T23:51:51.322Z,99050.97
2022-12-28T23:54:18.961Z,99044.47
2022-12-28T23:56:45.983Z,99061.88
2022-12-28T23:59:12.669Z,99052.78
